Cow Head, Canada
Current Conditions -  °F | °C
As of 7:00 PM on Wednesday 22 Oct 2014 (Local Time) from CWDH Reporting Station
Clear Clear  
Wind Chill: 38°   Ceiling: Unl
Heat Index: 38°   Visibility: 9mi
Dew Point: 28°   Wind: 2mph
Humidity: 66%   Direction: 290°WNW
Pressure: 30.44"   Gusts: NA
Location:  49.92°N, 57.9°W
Report Text: CWDH 222100Z AUTO 29002KT 9SM NSC 04/M02 A3044 RMK SLP311 T00351023 WSI/SWOB
Loading
Personal Weather Stations






























Interactive Weather Map
Tropical Storm Tracking
New forecast layout! Learn more

10-Day Weather Forecast

Advertisements
Track Severe Weather on mobile